Time;durP1;ratioP1;P1;durP2;ratioP2;P2;SDS_P1;SDS_P2;PMS_P1;PMS_P2;Temp;Humidity;BMP_temperature;BMP_pressure;BME280_temperature;BME280_humidity;BME280_pressure;Samples;Min_cycle;Max_cycle;Signal;HPM_P1;HPM_P2
2023/08/14 00:01:19;;;;;;;3.83;2.37;;;;;;;23.17;50.35;99964.16;4482660;32;33134;-67
2023/08/14 00:03:46;;;;;;;4.43;2.55;;;;;;;23.12;50.56;99970.19;4481429;32;32319;-68
2023/08/14 00:06:14;;;;;;;3.75;2.17;;;;;;;23.16;50.36;99967.94;4483091;32;33848;-69
2023/08/14 00:08:42;;;;;;;4.95;2.47;;;;;;;23.10;50.43;99966.81;4482456;32;33981;-69
2023/08/14 00:11:09;;;;;;;4.07;2.42;;;;;;;23.11;50.26;99968.47;4481276;32;33242;-69
2023/08/14 00:13:54;;;;;;;4.85;2.70;;;;;;;23.10;50.38;99971.41;4482054;32;34566;-69
2023/08/14 00:16:23;;;;;;;4.70;2.97;;;;;;;23.02;50.60;99969.66;4483134;32;34803;-69
2023/08/14 00:18:51;;;;;;;3.72;2.40;;;;;;;23.08;50.25;99968.91;4482455;32;33972;-69
2023/08/14 00:21:19;;;;;;;3.78;2.05;;;;;;;23.04;50.50;99972.19;4478820;32;32878;-68
2023/08/14 00:23:47;;;;;;;3.97;2.58;;;;;;;22.98;50.59;99969.16;4483002;32;33943;-68
2023/08/14 00:26:14;;;;;;;6.00;3.28;;;;;;;22.97;50.46;99974.81;4480629;32;34702;-68
2023/08/14 00:28:42;;;;;;;4.40;3.00;;;;;;;22.78;50.72;99968.03;4482414;32;34997;-68
2023/08/14 00:31:10;;;;;;;5.07;2.83;;;;;;;22.81;50.64;99962.19;4481773;31;34671;-68
2023/08/14 00:33:37;;;;;;;6.18;2.80;;;;;;;22.84;50.74;99955.50;4482127;32;34653;-70
2023/08/14 00:36:05;;;;;;;4.90;2.72;;;;;;;22.85;51.09;99966.22;4480081;32;33778;-70
2023/08/14 00:38:34;;;;;;;5.07;2.47;;;;;;;22.90;51.06;99960.22;4481779;32;34904;-70
2023/08/14 00:41:02;;;;;;;4.80;2.65;;;;;;;22.88;50.94;99963.13;4481740;32;33176;-70
2023/08/14 00:43:30;;;;;;;4.10;2.28;;;;;;;22.85;50.85;99963.50;4482182;32;33611;-69
2023/08/14 00:45:58;;;;;;;5.18;3.15;;;;;;;22.89;50.70;99966.69;4480761;32;35426;-69
2023/08/14 00:48:26;;;;;;;5.87;2.87;;;;;;;22.87;50.78;99964.16;4462022;32;33398;-70
2023/08/14 00:50:54;;;;;;;4.78;2.58;;;;;;;22.84;50.74;99972.72;4476027;32;33526;-69
2023/08/14 00:53:24;;;;;;;6.40;3.03;;;;;;;22.82;50.78;99969.31;4467719;31;34112;-69
2023/08/14 00:55:52;;;;;;;3.25;2.15;;;;;;;22.73;50.97;99970.50;4479516;32;35088;-70
2023/08/14 00:58:21;;;;;;;5.25;2.95;;;;;;;22.72;51.07;99985.13;4478222;32;34482;-70
2023/08/14 01:00:49;;;;;;;3.33;2.00;;;;;;;22.61;51.48;99981.00;4480874;31;33970;-69
2023/08/14 01:03:19;;;;;;;4.95;2.60;;;;;;;22.64;51.30;99990.69;4481914;32;33864;-70
2023/08/14 01:05:47;;;;;;;5.57;2.85;;;;;;;22.64;51.25;99985.25;4479401;32;34992;-70
2023/08/14 01:08:15;;;;;;;4.75;2.37;;;;;;;22.51;51.51;99984.00;4479551;32;32284;-69
2023/08/14 01:10:59;;;;;;;6.15;3.22;;;;;;;22.48;51.66;99978.91;4479128;31;33028;-71
2023/08/14 01:13:35;;;;;;;3.05;2.05;;;;;;;22.48;51.78;99972.63;4474583;32;34406;-71
2023/08/14 01:16:10;;;;;;;4.93;2.42;;;;;;;22.47;52.08;99981.81;4473301;31;32822;-71
2023/08/14 01:18:39;;;;;;;;;;;;;;;22.47;52.11;99985.41;4481288;32;34833;-71
2023/08/14 01:21:11;;;;;;;4.55;2.70;;;;;;;22.49;51.89;99982.50;4482112;32;32134;-71
2023/08/14 01:23:52;;;;;;;6.60;3.83;;;;;;;22.46;51.99;99978.25;4470031;32;33738;-71
2023/08/14 01:26:20;;;;;;;5.03;2.30;;;;;;;22.40;52.15;99979.00;4476028;32;34250;-71
2023/08/14 01:28:49;;;;;;;4.57;3.17;;;;;;;22.41;52.01;99977.97;4469343;32;34370;-71
2023/08/14 01:31:17;;;;;;;4.97;3.15;;;;;;;22.43;51.94;99972.31;4479301;32;32981;-71
2023/08/14 01:33:44;;;;;;;5.37;3.10;;;;;;;22.40;51.99;99969.97;4476177;32;34704;-70
2023/08/14 01:36:17;;;;;;;6.18;2.97;;;;;;;22.39;52.01;99969.13;4481147;32;33706;-71
2023/08/14 01:38:57;;;;;;;4.50;2.58;;;;;;;22.39;51.97;99969.13;4479848;32;33946;-71
2023/08/14 01:41:28;;;;;;;7.20;3.03;;;;;;;22.35;51.98;99959.62;4471680;32;33215;-70
2023/08/14 01:43:58;;;;;;;6.35;3.42;;;;;;;22.29;52.09;99966.66;4473700;32;34492;-70
2023/08/14 01:46:26;;;;;;;5.37;2.97;;;;;;;22.13;52.33;99966.78;4466043;32;34436;-70
2023/08/14 01:48:56;;;;;;;4.80;2.75;;;;;;;22.19;52.31;99967.97;4479298;32;34341;-71
2023/08/14 01:51:24;;;;;;;9.43;3.08;;;;;;;22.20;52.24;99975.09;4474790;31;33159;-70
2023/08/14 01:53:52;;;;;;;3.85;2.33;;;;;;;22.14;52.35;99973.94;4480791;32;33572;-70
2023/08/14 01:56:21;;;;;;;6.75;3.25;;;;;;;22.10;52.40;99970.72;4470200;32;34112;-70
2023/08/14 01:58:48;;;;;;;6.70;3.35;;;;;;;21.99;52.78;99971.19;4481469;32;32323;-70
2023/08/14 02:01:16;;;;;;;3.87;2.42;;;;;;;22.01;52.79;99980.00;4481625;32;33599;-70
2023/08/14 02:03:44;;;;;;;12.70;3.45;;;;;;;22.04;52.74;99978.78;4482135;31;34730;-70
2023/08/14 02:06:12;;;;;;;5.05;3.25;;;;;;;21.95;52.95;99983.44;4480356;32;34866;-71
2023/08/14 02:08:39;;;;;;;4.75;2.87;;;;;;;21.85;53.12;99980.13;4482703;32;32388;-70
2023/08/14 02:11:08;;;;;;;3.97;2.60;;;;;;;21.90;52.90;99979.59;4480317;31;32997;-71
2023/08/14 02:13:36;;;;;;;5.50;3.25;;;;;;;21.94;52.75;99976.31;4481660;32;33744;-71
2023/08/14 02:16:04;;;;;;;4.95;2.90;;;;;;;21.92;52.88;99970.19;4481045;32;33675;-70
2023/08/14 02:18:32;;;;;;;7.10;2.30;;;;;;;21.83;53.13;99976.75;4474855;32;34572;-70
2023/08/14 02:20:59;;;;;;;3.87;2.53;;;;;;;21.74;53.39;99978.69;4483515;32;35191;-70
2023/08/14 02:23:27;;;;;;;5.70;2.45;;;;;;;21.79;53.27;99975.41;4483754;32;33590;-70
2023/08/14 02:25:56;;;;;;;3.67;2.42;;;;;;;21.69;53.54;99982.97;4482840;32;34073;-70
2023/08/14 02:28:23;;;;;;;4.00;2.83;;;;;;;21.70;53.36;99974.62;4481882;32;35000;-71
2023/08/14 02:30:53;;;;;;;8.38;3.37;;;;;;;21.67;53.50;99975.00;4479254;31;34532;-70
2023/08/14 02:33:20;;;;;;;4.93;3.12;;;;;;;21.66;53.58;99977.87;4482755;32;33737;-69
2023/08/14 02:35:48;;;;;;;6.30;2.90;;;;;;;21.69;53.35;99974.81;4480023;32;34190;-70
2023/08/14 02:38:15;;;;;;;4.65;3.40;;;;;;;21.76;53.19;99971.16;4480301;32;33417;-69
2023/08/14 02:40:43;;;;;;;5.20;2.75;;;;;;;21.75;53.25;99971.34;4480490;32;34459;-70
2023/08/14 02:43:11;;;;;;;5.00;2.12;;;;;;;21.70;53.52;99971.91;4482529;31;33424;-70
2023/08/14 02:45:41;;;;;;;5.22;3.90;;;;;;;21.74;53.60;99969.69;4483770;32;34813;-70
2023/08/14 02:48:10;;;;;;;5.30;3.00;;;;;;;21.79;53.60;99969.97;4484328;32;34168;-70
2023/08/14 02:50:38;;;;;;;5.97;2.87;;;;;;;21.84;53.58;99975.72;4482220;32;34269;-70
2023/08/14 02:53:06;;;;;;;4.60;2.42;;;;;;;21.86;53.42;99973.62;4470709;32;33505;-70
2023/08/14 02:55:33;;;;;;;4.68;2.40;;;;;;;21.90;53.21;99982.31;4482570;32;34241;-69
2023/08/14 02:58:01;;;;;;;5.60;2.92;;;;;;;21.90;53.13;99979.59;4481835;32;34064;-70
2023/08/14 03:03:22;;;;;;;5.40;3.67;;;;;;;21.90;52.77;99987.78;4325065;33;34481;-71
2023/08/14 03:05:50;;;;;;;9.90;2.92;;;;;;;21.81;52.81;99987.81;4332227;33;33875;-69
2023/08/14 03:08:18;;;;;;;5.62;3.08;;;;;;;21.77;52.98;99988.38;4331543;33;33930;-76
2023/08/14 03:10:45;;;;;;;5.82;3.00;;;;;;;21.81;52.83;99987.81;4331867;33;33349;-77
2023/08/14 03:13:13;;;;;;;4.40;2.62;;;;;;;21.79;52.83;99994.47;4333662;33;33921;-73
2023/08/14 03:15:41;;;;;;;4.07;2.50;;;;;;;21.81;52.65;99990.53;4331730;33;35089;-73
2023/08/14 03:18:08;;;;;;;5.18;3.10;;;;;;;21.56;53.50;99989.00;4332352;33;34914;-73
2023/08/14 03:20:37;;;;;;;6.37;3.40;;;;;;;21.36;53.78;99991.34;4330938;33;33217;-73
2023/08/14 03:23:04;;;;;;;5.72;3.67;;;;;;;21.28;54.02;99992.19;4332138;33;35047;-73
2023/08/14 03:25:32;;;;;;;4.10;2.83;;;;;;;21.47;53.68;99998.25;4331086;33;34884;-74
2023/08/14 03:28:00;;;;;;;3.95;2.50;;;;;;;21.53;53.65;99998.38;4332525;33;33496;-73
2023/08/14 03:30:28;;;;;;;4.45;2.60;;;;;;;21.60;53.48;99999.38;4332082;33;33097;-73
2023/08/14 03:32:55;;;;;;;4.40;2.33;;;;;;;21.65;53.41;99998.00;4330520;33;34679;-71
2023/08/14 03:35:23;;;;;;;4.57;2.62;;;;;;;21.61;53.27;100005.69;4330273;33;34991;-70
2023/08/14 03:37:51;;;;;;;4.60;3.20;;;;;;;21.56;53.39;100010.81;4321908;33;33524;-72
2023/08/14 03:40:19;;;;;;;17.05;3.37;;;;;;;21.49;53.61;100005.22;4331717;33;33499;-72
2023/08/14 03:42:46;;;;;;;5.75;2.67;;;;;;;21.52;53.52;100002.16;4332525;33;33991;-72
2023/08/14 03:45:14;;;;;;;5.35;2.45;;;;;;;21.51;53.60;100003.19;4330480;33;33718;-71
2023/08/14 03:47:42;;;;;;;5.53;2.97;;;;;;;21.57;53.42;100002.47;4332520;33;35683;-71
2023/08/14 03:50:10;;;;;;;4.37;2.60;;;;;;;21.60;53.51;100009.41;4331886;33;33394;-71
2023/08/14 03:52:37;;;;;;;7.43;2.85;;;;;;;21.61;53.42;100014.69;4331558;33;35058;-70
2023/08/14 03:55:05;;;;;;;4.35;2.53;;;;;;;21.62;53.32;100021.81;4331965;33;33841;-71
2023/08/14 03:57:33;;;;;;;5.15;2.85;;;;;;;21.55;53.50;100018.12;4331661;33;33934;-68
2023/08/14 04:00:00;;;;;;;5.30;3.22;;;;;;;21.43;53.87;100021.44;4331010;33;34055;-69
2023/08/14 04:02:38;;;;;;;3.75;2.50;;;;;;;21.43;53.83;100016.84;4331159;33;35078;-68
2023/08/14 04:05:07;;;;;;;6.07;3.35;;;;;;;21.52;53.47;100017.66;4331114;33;35747;-69
2023/08/14 04:07:34;;;;;;;6.10;3.15;;;;;;;21.49;53.54;100027.00;4331982;33;34022;-68
2023/08/14 04:10:03;;;;;;;5.62;2.62;;;;;;;21.55;53.45;100029.03;4330596;33;33150;-68
2023/08/14 04:12:31;;;;;;;4.93;2.62;;;;;;;21.59;53.46;100022.19;4332656;33;34612;-68
2023/08/14 04:15:19;;;;;;;12.43;2.92;;;;;;;21.59;53.57;100029.50;4326607;33;33733;-69
2023/08/14 04:17:47;;;;;;;4.53;2.80;;;;;;;21.67;53.33;100031.31;4331803;33;34101;-67
2023/08/14 04:20:15;;;;;;;7.78;3.40;;;;;;;21.72;53.08;100031.66;4331600;33;33367;-69
2023/08/14 04:22:43;;;;;;;6.53;3.85;;;;;;;21.77;52.92;100034.69;4332644;33;33508;-69
2023/08/14 04:25:10;;;;;;;5.70;2.87;;;;;;;21.82;52.95;100043.16;4329605;33;36748;-69
2023/08/14 04:27:38;;;;;;;9.80;2.65;;;;;;;21.89;52.73;100043.28;4332361;33;33643;-69
2023/08/14 04:30:06;;;;;;;4.40;2.78;;;;;;;21.88;52.78;100039.72;4331973;33;33088;-68
2023/08/14 04:32:35;;;;;;;10.90;3.22;;;;;;;21.96;52.63;100039.66;4334898;33;35110;-69
2023/08/14 04:35:03;;;;;;;6.65;3.92;;;;;;;22.03;52.54;100040.63;4330664;33;34078;-69
2023/08/14 04:37:30;;;;;;;5.62;2.97;;;;;;;22.06;52.71;100037.53;4331394;33;34008;-70
2023/08/14 04:39:58;;;;;;;5.28;3.58;;;;;;;22.17;52.49;100040.91;4331318;33;33814;-70
2023/08/14 04:42:26;;;;;;;5.90;2.62;;;;;;;22.23;52.29;100034.72;4332932;33;33449;-71
2023/08/14 04:44:54;;;;;;;5.35;2.45;;;;;;;22.29;52.22;100043.00;4331222;33;35446;-71
2023/08/14 04:47:22;;;;;;;4.35;2.87;;;;;;;22.39;51.95;100039.19;4329429;33;33564;-70
2023/08/14 04:49:50;;;;;;;7.93;2.97;;;;;;;22.44;51.57;100037.59;4331256;33;33525;-69
2023/08/14 04:52:20;;;;;;;6.40;3.17;;;;;;;22.54;51.37;100038.19;4332532;33;35134;-68
2023/08/14 04:54:49;;;;;;;8.40;2.85;;;;;;;22.61;51.26;100040.19;4331109;33;34056;-68
2023/08/14 04:57:16;;;;;;;5.05;2.95;;;;;;;22.70;51.24;100034.44;4330540;33;34018;-69
2023/08/14 04:59:44;;;;;;;5.12;2.42;;;;;;;23.02;50.53;100046.09;4331195;33;33406;-70
2023/08/14 05:02:12;;;;;;;5.65;2.72;;;;;;;23.45;49.49;100041.59;4327148;33;33594;-69
2023/08/14 05:04:39;;;;;;;4.70;2.72;;;;;;;23.54;48.98;100041.50;4330270;33;34224;-69
2023/08/14 05:07:07;;;;;;;6.70;2.58;;;;;;;23.51;49.26;100050.09;4324037;33;34143;-69
2023/08/14 05:09:35;;;;;;;4.60;2.95;;;;;;;23.49;49.43;100048.38;4331457;33;33962;-71
2023/08/14 05:12:03;;;;;;;6.05;3.22;;;;;;;23.43;49.99;100054.59;4331550;33;33817;-71
2023/08/14 05:14:31;;;;;;;7.03;3.12;;;;;;;23.41;50.50;100051.22;4330851;33;34931;-70
2023/08/14 05:16:59;;;;;;;5.03;2.80;;;;;;;23.64;50.14;100055.72;4330870;33;34234;-70
2023/08/14 05:19:26;;;;;;;5.22;2.60;;;;;;;23.70;48.75;100057.72;4329705;33;33269;-71
2023/08/14 05:21:54;;;;;;;5.65;2.62;;;;;;;23.73;48.44;100053.75;4330545;33;33926;-71
2023/08/14 05:24:21;;;;;;;6.40;3.37;;;;;;;23.78;48.22;100057.56;4328050;33;33735;-71
2023/08/14 05:26:49;;;;;;;3.67;2.30;;;;;;;23.81;48.20;100054.47;4328820;33;34969;-70
2023/08/14 05:29:17;;;;;;;4.62;2.47;;;;;;;24.03;47.69;100055.31;4329276;33;33354;-71
2023/08/14 05:31:45;;;;;;;4.53;2.60;;;;;;;24.33;47.29;100055.19;4331194;33;33641;-71
2023/08/14 05:34:12;;;;;;;4.20;2.55;;;;;;;24.76;46.26;100057.91;4332519;33;33817;-72
2023/08/14 05:36:40;;;;;;;5.15;2.92;;;;;;;25.32;44.88;100053.22;4333465;33;33678;-72
2023/08/14 05:39:08;;;;;;;4.78;2.97;;;;;;;25.84;43.21;100056.38;4329683;33;34295;-74
2023/08/14 05:41:36;;;;;;;5.20;3.30;;;;;;;25.77;43.41;100050.84;4338490;33;33854;-74
2023/08/14 05:44:05;;;;;;;6.05;3.62;;;;;;;25.70;44.03;100057.37;4332452;33;34004;-73
2023/08/14 05:46:33;;;;;;;7.68;4.30;;;;;;;25.62;44.62;100049.31;4320889;33;33476;-74
2023/08/14 05:49:00;;;;;;;2.85;1.70;;;;;;;25.61;44.75;100053.97;4327241;33;34274;-74
2023/08/14 05:51:28;;;;;;;6.70;3.10;;;;;;;25.63;45.17;100054.63;4332098;33;34653;-73
2023/08/14 05:53:56;;;;;;;8.90;2.65;;;;;;;25.67;46.02;100055.88;4331059;33;34871;-73
2023/08/14 05:56:24;;;;;;;7.70;3.60;;;;;;;25.70;45.21;100051.91;4331545;33;35428;-72
2023/08/14 05:58:51;;;;;;;13.62;4.00;;;;;;;25.66;45.92;100048.72;4332212;33;33256;-74
2023/08/14 06:01:19;;;;;;;6.80;3.78;;;;;;;25.72;46.15;100047.91;4330220;33;33725;-73
2023/08/14 06:03:47;;;;;;;7.35;3.92;;;;;;;25.74;46.66;100054.00;4322111;33;34265;-74
2023/08/14 06:06:15;;;;;;;5.95;3.45;;;;;;;25.86;46.33;100051.56;4326828;33;33380;-74
2023/08/14 06:08:43;;;;;;;6.12;3.28;;;;;;;25.84;47.00;100061.03;4329264;33;33162;-73
2023/08/14 06:11:11;;;;;;;9.30;3.37;;;;;;;25.93;46.21;100065.28;4330065;33;33886;-73
2023/08/14 06:13:38;;;;;;;7.00;3.28;;;;;;;25.74;46.67;100061.37;4331214;33;34232;-73
2023/08/14 06:16:06;;;;;;;6.60;3.20;;;;;;;25.86;45.82;100065.25;4330028;33;34900;-74
2023/08/14 06:18:34;;;;;;;6.28;2.97;;;;;;;25.95;45.83;100082.38;4337747;33;34567;-74
2023/08/14 06:21:01;;;;;;;6.35;3.15;;;;;;;25.95;46.20;100065.94;4341387;33;33783;-74
2023/08/14 06:23:29;;;;;;;6.07;3.72;;;;;;;25.96;47.04;100071.19;4332338;33;33779;-74
2023/08/14 06:25:57;;;;;;;6.45;3.78;;;;;;;26.10;47.09;100069.34;4328538;33;34674;-75
2023/08/14 06:28:25;;;;;;;9.32;4.45;;;;;;;26.01;47.37;100071.44;4328847;33;33328;-74
2023/08/14 06:30:53;;;;;;;9.60;3.22;;;;;;;26.22;46.47;100072.28;4332410;33;33663;-74
2023/08/14 06:33:20;;;;;;;6.60;3.80;;;;;;;26.21;46.49;100071.47;4331994;33;34609;-73
2023/08/14 06:35:48;;;;;;;5.35;3.40;;;;;;;26.14;46.42;100072.50;4330964;33;33909;-71
2023/08/14 06:38:15;;;;;;;9.10;4.12;;;;;;;25.92;46.87;100080.87;4332990;33;33542;-74
2023/08/14 06:40:43;;;;;;;6.20;3.55;;;;;;;26.16;46.65;100074.00;4330293;33;33484;-75
2023/08/14 06:43:11;;;;;;;7.10;3.80;;;;;;;26.15;46.64;100072.28;4330242;33;33303;-74
2023/08/14 06:45:39;;;;;;;7.12;4.15;;;;;;;26.34;46.89;100069.78;4321635;33;33824;-77
2023/08/14 06:48:07;;;;;;;6.78;4.20;;;;;;;26.35;46.95;100071.47;4328164;33;34502;-75
2023/08/14 06:50:35;;;;;;;8.80;3.97;;;;;;;26.48;46.52;100079.75;4328336;33;34640;-74
2023/08/14 06:53:02;;;;;;;8.38;3.97;;;;;;;26.59;45.97;100075.53;4330488;33;34059;-77
2023/08/14 06:55:30;;;;;;;6.62;3.90;;;;;;;26.66;46.43;100081.88;4320436;33;33747;-72
2023/08/14 06:57:58;;;;;;;9.13;3.97;;;;;;;26.53;46.63;100085.47;4321805;33;33115;-75
2023/08/14 07:00:25;;;;;;;6.10;3.80;;;;;;;26.66;45.59;100087.34;4327127;33;34098;-75
2023/08/14 07:02:53;;;;;;;8.48;3.85;;;;;;;26.68;44.32;100090.75;4331442;33;35208;-77
2023/08/14 07:05:21;;;;;;;7.10;3.72;;;;;;;26.51;45.63;100089.47;4330481;33;33803;-77
2023/08/14 07:07:49;;;;;;;6.90;3.85;;;;;;;26.51;47.28;100089.47;4331081;33;33287;-75
2023/08/14 07:10:17;;;;;;;5.62;3.22;;;;;;;26.91;45.50;100088.41;4329457;33;33878;-76
2023/08/14 07:12:46;;;;;;;5.25;3.20;;;;;;;27.06;43.60;100085.44;4324747;33;34077;-76
2023/08/14 07:15:14;;;;;;;8.88;3.80;;;;;;;27.06;44.44;100084.56;4327971;33;34773;-78
2023/08/14 07:17:42;;;;;;;6.62;3.12;;;;;;;27.12;44.39;100086.47;4319299;33;33271;-76
2023/08/14 07:20:10;;;;;;;7.05;4.15;;;;;;;26.89;44.16;100086.91;4323177;33;32509;-75
2023/08/14 07:22:38;;;;;;;6.90;3.03;;;;;;;27.02;41.54;100075.91;4325004;33;33723;-76
2023/08/14 07:25:07;;;;;;;6.35;3.60;;;;;;;27.23;42.84;100083.09;4326070;33;33531;-75
2023/08/14 07:27:34;;;;;;;4.93;2.70;;;;;;;26.91;42.31;100088.41;4326369;33;33129;-75
2023/08/14 07:30:04;;;;;;;5.05;3.10;;;;;;;27.05;40.68;100080.97;4323691;33;33777;-76
2023/08/14 07:32:33;;;;;;;6.82;3.15;;;;;;;27.18;40.06;100085.63;4325538;33;33276;-76
2023/08/14 07:35:01;;;;;;;5.78;3.08;;;;;;;27.40;40.49;100086.22;4327061;33;33551;-76
2023/08/14 07:37:28;;;;;;;6.15;3.33;;;;;;;27.33;38.93;100086.22;4325254;33;33484;-77
2023/08/14 07:39:56;;;;;;;4.68;2.50;;;;;;;27.32;39.19;100089.19;4325568;33;34705;-76
2023/08/14 07:42:24;;;;;;;7.05;2.87;;;;;;;27.51;39.08;100092.94;4326232;33;34925;-75
2023/08/14 07:44:51;;;;;;;9.60;3.62;;;;;;;27.79;39.55;100087.16;4328152;33;33835;-77
2023/08/14 07:47:19;;;;;;;7.57;2.67;;;;;;;28.04;38.98;100082.56;4329072;33;31472;-77
2023/08/14 07:49:47;;;;;;;11.40;2.85;;;;;;;27.79;38.88;100085.22;4329198;33;32667;-76
2023/08/14 07:52:14;;;;;;;5.18;2.75;;;;;;;27.76;40.47;100084.81;4329499;33;33802;-76
2023/08/14 07:54:43;;;;;;;9.38;3.35;;;;;;;28.15;39.69;100086.50;4327153;33;34053;-77
2023/08/14 07:57:10;;;;;;;8.88;3.72;;;;;;;28.19;39.59;100079.53;4331471;33;33783;-77
2023/08/14 07:59:38;;;;;;;6.07;3.08;;;;;;;28.24;39.88;100081.59;4331533;33;33496;-76
2023/08/14 08:02:06;;;;;;;8.73;3.45;;;;;;;28.28;39.23;100083.69;4330612;33;35438;-76
2023/08/14 08:04:36;;;;;;;9.32;3.30;;;;;;;28.52;38.61;100075.72;4323487;33;35040;-76
2023/08/14 08:07:07;;;;;;;6.55;2.80;;;;;;;28.45;39.14;100084.03;4330419;33;33995;-76
2023/08/14 08:09:37;;;;;;;6.60;3.87;;;;;;;28.65;38.40;100089.38;4330301;33;34838;-76
2023/08/14 08:12:06;;;;;;;10.15;4.03;;;;;;;28.37;39.07;100086.16;4328555;33;34854;-75
2023/08/14 08:14:34;;;;;;;9.05;3.70;;;;;;;28.45;39.01;100089.53;4327584;33;34664;-76
2023/08/14 08:17:03;;;;;;;7.22;3.75;;;;;;;28.61;38.21;100087.28;4327055;33;34406;-76
2023/08/14 08:19:31;;;;;;;6.85;3.30;;;;;;;28.73;38.39;100077.22;4310902;33;34184;-77
2023/08/14 08:22:00;;;;;;;6.90;3.67;;;;;;;28.97;38.22;100081.88;4309501;33;34138;-75
2023/08/14 08:24:27;;;;;;;4.68;2.72;;;;;;;29.11;37.81;100084.50;4312509;33;33765;-77
2023/08/14 08:26:55;;;;;;;7.85;3.35;;;;;;;28.73;37.76;100090.97;4310367;33;32923;-77
2023/08/14 08:29:23;;;;;;;5.75;2.85;;;;;;;29.05;36.56;100079.91;4307615;33;33807;-77
2023/08/14 08:31:50;;;;;;;7.95;3.85;;;;;;;28.93;36.84;100091.66;4308537;33;34148;-75
2023/08/14 08:34:18;;;;;;;5.62;3.22;;;;;;;28.99;36.47;100093.50;4312293;33;34633;-76
2023/08/14 08:36:46;;;;;;;6.97;3.20;;;;;;;28.88;37.10;100091.50;4308665;33;33572;-76
2023/08/14 08:39:15;;;;;;;5.70;2.35;;;;;;;29.17;36.53;100091.87;4309715;33;33478;-75
2023/08/14 08:41:47;;;;;;;6.85;3.25;;;;;;;29.26;35.16;100087.75;4313121;33;35752;-76
2023/08/14 08:44:23;;;;;;;6.72;2.78;;;;;;;29.02;34.59;100090.34;4300246;33;33591;-76
2023/08/14 08:46:52;;;;;;;4.80;2.75;;;;;;;29.38;35.97;100096.12;4310477;33;34351;-76
2023/08/14 08:49:20;;;;;;;5.22;2.85;;;;;;;29.61;33.71;100093.53;4305996;33;34568;-76
2023/08/14 08:51:48;;;;;;;4.82;2.58;;;;;;;29.59;33.84;100090.12;4321284;33;33146;-75
2023/08/14 08:54:16;;;;;;;6.28;3.33;;;;;;;29.51;33.87;100095.94;4319950;33;33665;-75
2023/08/14 08:56:44;;;;;;;6.93;3.28;;;;;;;29.58;35.28;100098.63;4325062;33;32819;-78
2023/08/14 08:59:13;;;;;;;7.82;2.87;;;;;;;29.69;34.23;100095.13;4318350;33;33863;-76
2023/08/14 09:01:41;;;;;;;7.72;3.22;;;;;;;29.68;33.37;100098.97;4327198;33;34935;-74
2023/08/14 09:04:09;;;;;;;4.87;2.67;;;;;;;29.74;33.73;100095.28;4330698;33;33735;-74
2023/08/14 09:06:37;;;;;;;4.95;2.80;;;;;;;29.61;33.35;100089.94;4328756;33;33614;-74
2023/08/14 09:09:06;;;;;;;7.90;3.25;;;;;;;29.66;34.11;100085.41;4328402;33;33893;-74
2023/08/14 09:11:34;;;;;;;7.30;2.95;;;;;;;29.66;35.59;100090.06;4311410;33;34058;-76
2023/08/14 09:14:01;;;;;;;6.43;3.03;;;;;;;29.62;34.69;100084.16;4307297;33;33847;-78
2023/08/14 09:16:29;;;;;;;5.32;3.47;;;;;;;29.44;33.19;100081.41;4313103;33;33347;-77
2023/08/14 09:18:58;;;;;;;6.57;2.83;;;;;;;30.00;33.87;100076.69;4309844;33;33484;-76
2023/08/14 09:21:27;;;;;;;6.35;2.40;;;;;;;29.91;34.18;100071.47;4314767;33;35361;-74
2023/08/14 09:23:55;;;;;;;7.37;2.92;;;;;;;30.36;33.85;100071.03;4311862;33;33806;-75
2023/08/14 09:26:23;;;;;;;8.30;2.85;;;;;;;30.40;34.18;100074.16;4314922;33;33215;-75
2023/08/14 09:28:51;;;;;;;7.18;3.28;;;;;;;30.52;33.14;100071.44;4314181;33;33327;-75
2023/08/14 09:31:20;;;;;;;8.15;3.10;;;;;;;30.67;32.95;100068.22;4310076;33;34942;-77
2023/08/14 09:33:48;;;;;;;3.95;2.45;;;;;;;31.01;31.45;100074.87;4308651;33;34030;-78
2023/08/14 09:36:16;;;;;;;7.40;2.92;;;;;;;30.96;29.79;100074.75;4317684;33;33559;-78
2023/08/14 09:38:44;;;;;;;5.07;3.00;;;;;;;31.09;29.50;100072.59;4313344;33;34620;-76
2023/08/14 09:41:12;;;;;;;6.35;2.83;;;;;;;31.01;30.19;100072.97;4313325;33;33922;-74
2023/08/14 09:43:40;;;;;;;6.37;2.72;;;;;;;30.89;30.37;100066.59;4328435;33;34452;-74
2023/08/14 09:46:10;;;;;;;5.12;2.90;;;;;;;30.88;31.25;100064.88;4324236;33;32847;-72
2023/08/14 09:48:42;;;;;;;5.60;2.72;;;;;;;30.98;30.98;100069.81;4329615;33;33653;-71
2023/08/14 09:51:13;;;;;;;8.05;2.80;;;;;;;30.65;31.04;100060.16;4323599;33;33966;-76
2023/08/14 09:53:53;;;;;;;5.28;2.72;;;;;;;31.20;30.47;100061.75;4333694;33;33676;-77
2023/08/14 09:56:21;;;;;;;11.68;3.00;;;;;;;31.45;30.50;100064.25;4312163;33;34507;-78
2023/08/14 09:58:50;;;;;;;5.10;2.67;;;;;;;31.75;29.48;100062.12;4307656;33;34819;-78
2023/08/14 10:01:19;;;;;;;5.82;2.75;;;;;;;31.78;27.97;100064.41;4310435;33;34080;-78
2023/08/14 10:03:52;;;;;;;9.63;2.70;;;;;;;31.90;28.27;100058.84;4311314;33;34036;-78
2023/08/14 10:06:23;;;;;;;4.70;2.62;;;;;;;31.85;28.25;100058.72;4308062;33;32778;-77
2023/08/14 10:08:56;;;;;;;3.87;2.10;;;;;;;32.01;27.95;100062.66;4306459;33;33432;-78
2023/08/14 10:11:28;;;;;;;6.00;2.35;;;;;;;32.09;26.02;100062.25;4313252;33;34795;-78
2023/08/14 10:14:01;;;;;;;4.18;2.12;;;;;;;32.31;25.99;100058.78;4310740;33;33646;-79
2023/08/14 10:16:35;;;;;;;4.65;2.28;;;;;;;32.19;26.22;100059.66;4313319;33;33030;-79
2023/08/14 10:19:04;;;;;;;6.00;2.35;;;;;;;32.19;25.99;100056.06;4308950;33;34648;-78
2023/08/14 10:21:33;;;;;;;4.95;2.33;;;;;;;32.46;25.96;100059.06;4289220;33;33739;-76
2023/08/14 10:24:02;;;;;;;5.55;2.35;;;;;;;32.75;25.45;100051.50;4290344;33;33640;-78
2023/08/14 10:26:33;;;;;;;6.22;2.53;;;;;;;33.00;24.54;100047.44;4271504;33;34745;-77
2023/08/14 10:29:02;;;;;;;6.37;2.30;;;;;;;32.87;25.11;100051.38;4300859;33;34550;-78
2023/08/14 10:31:31;;;;;;;3.90;1.90;;;;;;;32.32;25.54;100055.72;4297428;33;33892;-79
2023/08/14 10:33:59;;;;;;;3.80;2.10;;;;;;;33.12;24.26;100042.62;4287379;33;34088;-77
2023/08/14 10:36:28;;;;;;;5.40;2.22;;;;;;;33.42;24.84;100039.44;4306258;33;33551;-76
2023/08/14 10:39:06;;;;;;;5.22;2.15;;;;;;;33.59;24.76;100040.25;4314345;33;33860;-77
2023/08/14 10:41:35;;;;;;;4.80;1.92;;;;;;;33.52;23.58;100034.06;4300288;33;34051;-74
2023/08/14 10:44:11;;;;;;;4.37;2.15;;;;;;;33.70;23.96;100035.62;4288376;33;34966;-77
2023/08/14 10:46:42;;;;;;;3.72;2.05;;;;;;;33.53;23.64;100029.34;4299846;33;33389;-76
2023/08/14 10:49:13;;;;;;;7.18;2.62;;;;;;;33.66;23.89;100028.09;4310974;33;33536;-77
2023/08/14 10:51:42;;;;;;;5.25;2.42;;;;;;;33.74;23.40;100031.25;4316661;33;35312;-77
2023/08/14 10:54:14;;;;;;;4.07;2.10;;;;;;;33.97;25.30;100020.94;4336303;33;33691;-77
2023/08/14 10:56:48;;;;;;;7.00;2.55;;;;;;;34.15;24.07;100015.03;4331433;33;34249;-77
2023/08/14 10:59:31;;;;;;;4.65;2.15;;;;;;;34.42;24.52;100019.72;4329406;33;33864;-77
2023/08/14 11:02:13;;;;;;;6.00;2.20;;;;;;;34.39;23.93;100011.91;4326045;33;33864;-76
2023/08/14 11:05:00;;;;;;;5.07;2.55;;;;;;;34.16;23.16;100007.53;4330605;33;33260;-78
2023/08/14 11:07:31;;;;;;;4.60;2.20;;;;;;;34.26;24.06;100008.47;4329578;33;33156;-77
2023/08/14 11:09:59;;;;;;;3.17;1.70;;;;;;;34.00;23.85;100007.38;4317796;33;34052;-78
2023/08/14 11:12:32;;;;;;;5.00;2.50;;;;;;;34.19;22.26;100001.44;4332457;33;33894;-78
2023/08/14 11:15:00;;;;;;;4.22;2.28;;;;;;;34.61;22.60;100000.69;4331445;33;35084;-78
2023/08/14 11:17:28;;;;;;;5.93;2.47;;;;;;;34.21;23.36;99997.31;4331195;33;33527;-76
2023/08/14 11:19:56;;;;;;;4.20;1.90;;;;;;;34.15;23.80;100003.09;4328513;33;35582;-77
2023/08/14 11:22:23;;;;;;;4.47;2.53;;;;;;;34.51;23.35;99999.50;4328337;33;34020;-77
2023/08/14 11:24:51;;;;;;;4.78;2.35;;;;;;;34.18;23.86;99992.28;4329731;33;32598;-77
2023/08/14 11:27:19;;;;;;;4.82;2.50;;;;;;;34.34;23.97;99995.19;4325029;33;33238;-74
2023/08/14 11:29:48;;;;;;;4.78;2.40;;;;;;;34.34;23.25;99993.25;4327851;33;33784;-77
2023/08/14 11:32:22;;;;;;;4.53;2.25;;;;;;;34.34;23.77;99998.81;4329262;33;33764;-76
2023/08/14 11:34:50;;;;;;;4.65;2.30;;;;;;;34.12;24.38;99987.78;4330058;33;33731;-78
2023/08/14 11:37:18;;;;;;;9.27;2.20;;;;;;;33.89;24.62;99997.25;4330602;33;33592;-78